Airfield :
LOGIN :

Register | Disclaimer

   EN    FR    IT 

 










Legend :    VFR   Marginal VFR   IFR   Intensive IFR   Very Intensive IFR
Visi :
Ceiling :
>= 8 km
>= 3000ft
5 to 8 km
1000 to 3000 ft
1500m to 5 km
500 to 1000 ft
800 to 1500m
200 to 500 ft
< 800m
< 200 ft
Symbols :   Thunderstorms  Fog  Heavy snow  Heavy precipitations  Wind > 20 kt
SIGMETs :     Misc.  Thunderstorms  Icing  Turbulence  Mountain Waves  Volcanic Ashes






- Airport Elevation : 502 ft
- IATA code : ORK


EICK - Cork

CURRENT METAR :
  • 250430Z 32003KT 3000 BR BKN002 BKN010 15/15 Q1017 BECMG 9999 BKN010

EXPIRED METARs :
  • 250400Z 32004KT 0600 R16/P2000 R34/P2000 FG BKN001 OVC002 15/15 Q1017 NOSIG
  • 250330Z 30005KT 0900 R16/P2000 R34/P2000 FG BKN001 OVC002 15/15 Q1017 NOSIG
  • 250300Z 30007KT 0700 R16/P2000 R34/P2000 FG OVC001 15/15 Q1017 NOSIG
  • 250230Z 27004KT 0600 R16/1800U R34/P2000 FG BKN001 OVC002 15/15 Q1017 NOSIG
  • 250200Z 20005KT 160V230 0300 R16/0650D R34/1000D FG OVC001 15/15 Q1017 NOSIG
  • 250130Z 21005KT 0900 R16/P2000 R34/P2000 FG BKN001 OVC002 15/15 Q1017 TEMPO 0500
  • 250100Z 21004KT 180V250 0200 R16/0800U R34/0800N FG OVC001 15/15 Q1017 NOSIG
  • 250030Z 19004KT 150V210 0300 R16/0800N R34/1100N FG OVC001 15/15 Q1017 NOSIG
  • 250000Z 21005KT 0400 R16/1000U R34/1600D FG OVC001 15/15 Q1017 NOSIG

TAF TAF EICK
Valid from the 25 at 00:00 until the 26 at 00:00 UTC


242300Z 2500/2524 VRB03KT 3000 BR BKN004
TEMPO 2500/2506 0500 FG BKN001
BECMG 2506/2508 9999 NSW FEW008 BKN020
PROB40
TEMPO 2508/2512 BKN008
BECMG 2509/2511 34010KT



MET'MAP, your aeronautical weather chart ! - Copyright ORBIFLY December 2007 - Disclaimer

ORBIFLY MET'MAP TEAM :

Programming & Development : Alexandra Zaïnal
Original concept : Baudouin d'Aumeries
Technical & hardware support : Manuel Goepfert
Assistance : Marc-Olivier Méhu




SOURCES & CREDITS :

   NOAA